メインページ
METAR-TAF:

METAR-TAF

空港 :

トゥーレ, グリーンランド

チューレ空軍基地

緯度: 76-32N, 経度: 068-42W, 海抜: 77m

現時点の気象観測

当レポートは37分前の21:58(UTC)に作成
の風 25kt
気温 8°C
湿度 76%
気圧 1007 hPa
視程10km以上
高度10000ftの雲はほとんどない
高度12000ftの千切れ雲あり

METAR: BGTL 262158Z AUTO 10025KT 9999 FEW100 BKN120 08/04 A2975 RMK AO2 PK WND 13042/23 SLP057 T00840035 $

時間: 19:35 (22:35 UTC)

予報

当レポートは3時間35分前の19:00(UTC)に作成
予報は26日の 19時(UTC)から 27日の 23時(UTC)まで有効
東/北東の風 25kt、最大35ktの突風を伴う
視程10km以上
高度1800ftの曇り
26日の 20時(UTC)から 26日の 21時(UTC)まで徐々に
の風 35kt、最大45ktの突風を伴う
視程10km以上
高度1800ftの雲は散在している
高度5000ftの千切れ雲あり
27日の 00時(UTC)から 27日の 01時(UTC)まで徐々に
の風 35kt、最大45ktの突風を伴う
視程: 5000m
高度3000ftの曇り
小雨
27日の 08時(UTC)から 27日の 09時(UTC)まで徐々に
の風 25kt、最大35ktの突風を伴う
視程: 5000m
高度3000ftの曇り
小雨
27日の 14時(UTC)から 27日の 15時(UTC)まで徐々に
東/南東の風 25kt、最大35ktの突風を伴う
視程: 2701m
高度4500ftの雲は散在している
高度5000ftの千切れ雲あり

TAF: BGTL 261900Z 2619/2723 06025G35KT 9999 OVC018 530008 QNH2974INS BECMG 2620/2621 09035G45KT 9999 SCT018 BKN050 610505 530008 QNH2971INS BECMG 2700/2701 09035G45KT 5000 -RA OVC030 620405 530008 QNH2974INS BECMG 2708/2709 09025G35KT 5000 -RA OVC030 620405 530008 QNH2978INS BECMG 2714/2715 11025G35KT 9999 NSW SCT045 BKN050 610505 530008 QNH2980INS TX09/2619Z TN05/2709Z LAST NO AMDS AFT 2619 NEXT 2701

4,000以上の空港の気象観測と天気予報(METAR報とTAF報)

利用可能な観測所は地図上に黄色い丸と赤い丸で示す。

丸の上にカーソルを重ねると観測所名を参照できる。

次にクリックすると気象観測と天気予報を参照できる。

マップの切り替え:黒色「×」印の緑ボタンをクリックして拡大、「-」印の緑ボタンをクリックして縮小、緑色の三角印をクリックして隣りの地図に切り替え


METAR-TAF: